Observations for BOSCOMBE DOWN, United Kingdom (EGDM)

EGDM 130850Z 09012KT 9999 FEW024 BKN035 BKN240 03/M00 Q1014 BLU NOSIG   
EGDM 130750Z 11012KT 9999 BKN028 03/00 Q1013 BLU NOSIG  
EGDM 130650Z 11015KT 9999 BKN028 04/M00 Q1013 BLU   
EGDM 130550Z AUTO 12014KT 9999 OVC029/// 03/00 Q1013
EGDM 130450Z AUTO 10010KT 9999 FEW034/// BKN220/// 02/M00 Q1013 
EGDM 130350Z AUTO 11013KT 9999 FEW024/// SCT032/// 02/00 Q1013  
EGDM 130250Z AUTO 09009KT 9999 NCD 02/M01 Q1014 
EGDM 130150Z AUTO 11011KT 9999 BKN034/// 03/M01 Q1014   
EGDM 130050Z AUTO 11011KT 9999 BKN037/// 04/M01 Q1014   
EGDM 122350Z AUTO 12009KT 9999 BKN037/// 04/M02 Q1015   
EGDM 122250Z AUTO 12010KT 9999 FEW039/// 03/M02 Q1015   
EGDM 122150Z AUTO 12009KT 9999 SCT035/// 02/M02 Q1016   
EGDM 122050Z AUTO 11010KT 9999 BKN034/// 03/M01 Q1016   
EGDM 121950Z AUTO 11008KT 9999 FEW032/// 02/M01 Q1017   
EGDM 121850Z AUTO 12011KT 9999 SCT028/// 04/M00 Q1017   
EGDM 121750Z 12013KT 9999 BKN028 05/01 Q1018 BLU
EGDM 121650Z 11012KT 9999 BKN030 05/01 Q1018 BLU
EGDM 121550Z 11011KT 9999 FEW022 BKN030 05/01 Q1019 BLU NOSIG   
EGDM 121450Z 13015KT 9999 FEW022 BKN030 06/02 Q1019 BLU NOSIG   
EGDM 121350Z 13014KT 9999 FEW022 BKN030 07/03 Q1019 BLU TEMPO SCT022 WHT
EGDM 121250Z 13015KT 9999 FEW022 BKN028 07/03 Q1020 BLU TEMPO SCT022 WHT
EGDM 121150Z 14012KT 9999 BKN020 07/03 Q1020 WHT TEMPO FEW020 BLU   
EGDM 121050Z 15011KT 9999 SCT015 07/04 Q1021 WHT NOSIG  
EGDM 121030Z 14010KT 9999 SCT015 07/05 Q1021 WHT TEMPO FEW015 BLU   
EGDM 121030Z 14010KT 9999 SCT015 07/05 Q1021 WHT TEMPO FEW015 BLU
EGDM 120950Z 12009KT 9999 FEW015 06/04 Q1020 BLU TEMPO SCT015 WHT   
EGDM 120850Z 14011KT 9999 FEW010 SCT300 05/03 Q1020 BLU TEMPO SCT015 WHT